createdAt,value
2023-02-19T00:01:40.581Z,12.72
2023-02-19T00:03:44.190Z,12.69
2023-02-19T00:05:46.223Z,12.67
2023-02-19T00:07:48.611Z,12.62
2023-02-19T00:09:50.552Z,12.54
2023-02-19T00:11:52.472Z,12.28
2023-02-19T00:13:56.114Z,12.46
2023-02-19T00:15:58.513Z,12.48
2023-02-19T00:18:00.619Z,12.52
2023-02-19T00:20:02.708Z,12.63
2023-02-19T00:22:06.368Z,12.60
2023-02-19T00:24:10.774Z,12.63
2023-02-19T00:26:18.527Z,12.58
2023-02-19T00:28:21.092Z,12.56
2023-02-19T00:30:23.058Z,12.62
2023-02-19T00:32:25.090Z,12.48
2023-02-19T00:34:27.201Z,12.40
2023-02-19T00:36:30.692Z,12.42
2023-02-19T00:38:39.014Z,12.47
2023-02-19T00:40:40.932Z,12.31
2023-02-19T00:42:44.860Z,12.13
2023-02-19T00:44:49.097Z,12.26
2023-02-19T00:46:51.036Z,12.18
2023-02-19T00:48:53.613Z,12.28
2023-02-19T00:50:55.471Z,12.28
2023-02-19T00:52:57.402Z,12.39
2023-02-19T00:55:01.695Z,12.21
2023-02-19T00:57:03.766Z,12.27
2023-02-19T00:59:05.935Z,12.36
2023-02-19T01:01:09.153Z,12.32
2023-02-19T01:03:11.400Z,12.31
2023-02-19T01:05:13.334Z,12.35
2023-02-19T01:07:15.430Z,12.45
2023-02-19T01:09:17.440Z,12.38
2023-02-19T01:11:20.648Z,12.44
2023-02-19T01:13:22.680Z,12.45
2023-02-19T01:15:24.601Z,12.36
2023-02-19T01:17:26.556Z,12.33
2023-02-19T01:19:28.592Z,12.43
2023-02-19T01:21:31.192Z,12.38
2023-02-19T01:23:33.467Z,12.46
2023-02-19T01:25:38.530Z,12.43
2023-02-19T01:27:40.574Z,12.39
2023-02-19T01:29:43.630Z,12.47
2023-02-19T01:31:45.776Z,12.34
2023-02-19T01:33:49.537Z,12.45
2023-02-19T01:35:51.455Z,12.39
2023-02-19T01:37:53.376Z,12.29
2023-02-19T01:39:55.466Z,12.36
2023-02-19T01:41:58.691Z,12.47
2023-02-19T01:44:04.145Z,12.29
2023-02-19T01:46:06.215Z,12.21
2023-02-19T01:48:11.347Z,12.20
2023-02-19T01:50:13.392Z,12.14
2023-02-19T01:52:23.132Z,12.21
2023-02-19T01:54:29.109Z,12.33
2023-02-19T01:56:34.723Z,12.34
2023-02-19T01:58:38.157Z,12.33
2023-02-19T02:00:40.240Z,12.23
2023-02-19T02:02:45.237Z,12.29
2023-02-19T02:04:47.547Z,12.22
2023-02-19T02:06:51.211Z,12.24
2023-02-19T02:08:59.817Z,12.11
2023-02-19T02:11:04.845Z,12.06
2023-02-19T02:13:06.904Z,12.14
2023-02-19T02:15:09.849Z,12.12
2023-02-19T02:17:15.164Z,12.04
2023-02-19T02:19:20.540Z,12.05
2023-02-19T02:21:25.895Z,12.09
2023-02-19T02:23:31.146Z,12.04
2023-02-19T02:25:37.520Z,12.09
2023-02-19T02:27:43.757Z,12.04
2023-02-19T02:29:56.191Z,11.92
2023-02-19T02:32:02.878Z,12.04
2023-02-19T02:34:12.398Z,11.99
2023-02-19T02:36:24.252Z,12.01
2023-02-19T02:38:29.926Z,12.06
2023-02-19T02:40:31.894Z,12.10
2023-02-19T02:42:35.032Z,12.07
2023-02-19T02:44:37.868Z,12.11
2023-02-19T02:46:47.530Z,11.98
2023-02-19T02:48:55.469Z,12.05
2023-02-19T02:51:05.404Z,12.08
2023-02-19T02:53:19.017Z,11.98
2023-02-19T02:55:21.537Z,11.97
2023-02-19T02:57:24.250Z,11.95
2023-02-19T02:59:29.590Z,11.94
2023-02-19T03:01:39.945Z,11.94
2023-02-19T03:03:47.365Z,11.96
2023-02-19T03:05:52.808Z,11.99
2023-02-19T03:08:04.446Z,12.02
2023-02-19T03:10:10.571Z,12.00
2023-02-19T03:12:18.780Z,12.01
2023-02-19T03:14:33.081Z,11.89
2023-02-19T03:16:43.005Z,11.83
2023-02-19T03:18:52.740Z,11.96
2023-02-19T03:20:58.224Z,11.94
2023-02-19T03:23:02.214Z,11.97
2023-02-19T03:25:12.428Z,11.99
2023-02-19T03:27:17.011Z,12.07
2023-02-19T03:29:22.118Z,12.07
2023-02-19T03:31:27.655Z,12.03
2023-02-19T03:33:30.597Z,11.91
2023-02-19T03:35:38.277Z,11.99
2023-02-19T03:37:48.337Z,12.07
2023-02-19T03:39:50.466Z,11.81
2023-02-19T03:41:55.805Z,11.97
2023-02-19T03:44:08.617Z,12.02
2023-02-19T03:46:23.403Z,12.00
2023-02-19T03:48:26.996Z,11.81
2023-02-19T03:50:37.562Z,11.85
2023-02-19T03:52:47.292Z,11.85
2023-02-19T03:54:57.834Z,11.83
2023-02-19T03:57:05.798Z,11.83
2023-02-19T03:59:14.463Z,11.72
2023-02-19T04:01:22.838Z,11.78
2023-02-19T04:03:37.101Z,11.83
2023-02-19T04:05:45.706Z,11.78
2023-02-19T04:07:50.885Z,11.78
2023-02-19T04:09:54.367Z,11.79
2023-02-19T04:11:57.059Z,11.71
2023-02-19T04:14:06.694Z,11.78
2023-02-19T04:16:13.158Z,11.84
2023-02-19T04:18:21.785Z,11.82
2023-02-19T04:20:28.218Z,11.91
2023-02-19T04:22:31.278Z,11.93
2023-02-19T04:24:40.632Z,11.93
2023-02-19T04:26:43.323Z,11.93
2023-02-19T04:28:45.094Z,11.93
2023-02-19T04:30:47.301Z,11.99
2023-02-19T04:32:49.186Z,12.05
2023-02-19T04:34:52.284Z,12.03
2023-02-19T04:36:55.900Z,12.08
2023-02-19T04:38:57.918Z,12.09
2023-02-19T04:40:59.686Z,11.91
2023-02-19T04:43:01.508Z,11.91
2023-02-19T04:45:03.477Z,11.97
2023-02-19T04:47:05.537Z,12.02
2023-02-19T04:49:07.594Z,11.84
2023-02-19T04:51:10.651Z,11.75
2023-02-19T04:53:12.791Z,11.73
2023-02-19T04:55:14.567Z,11.76
2023-02-19T04:57:16.367Z,11.61
2023-02-19T04:59:18.238Z,11.70
2023-02-19T05:01:20.533Z,11.73
2023-02-19T05:03:22.350Z,11.73
2023-02-19T05:05:24.166Z,11.66
2023-02-19T05:07:26.021Z,11.70
2023-02-19T05:09:27.879Z,11.72
2023-02-19T05:11:29.682Z,11.77
2023-02-19T05:13:31.785Z,11.80
2023-02-19T05:15:33.698Z,11.74
2023-02-19T05:17:35.756Z,11.82
2023-02-19T05:19:37.590Z,11.84
2023-02-19T05:21:40.656Z,11.67
2023-02-19T05:23:42.937Z,11.74
2023-02-19T05:25:45.036Z,11.77
2023-02-19T05:27:46.843Z,11.74
2023-02-19T05:29:48.602Z,11.52
2023-02-19T05:31:52.505Z,11.56
2023-02-19T05:33:56.263Z,11.66
2023-02-19T05:36:04.618Z,11.66
2023-02-19T05:38:08.176Z,11.53
2023-02-19T05:40:10.393Z,11.59
2023-02-19T05:42:15.037Z,11.65
2023-02-19T05:44:16.899Z,11.62
2023-02-19T05:46:21.214Z,11.64
2023-02-19T05:48:22.981Z,11.68
2023-02-19T05:50:25.305Z,11.66
2023-02-19T05:52:27.103Z,11.67
2023-02-19T05:54:29.781Z,11.72
2023-02-19T05:56:36.166Z,11.74
2023-02-19T05:58:37.926Z,11.72
2023-02-19T06:00:41.786Z,11.65
2023-02-19T06:02:44.319Z,11.64
2023-02-19T06:04:48.394Z,11.54
2023-02-19T06:06:52.309Z,11.64
2023-02-19T06:08:57.531Z,11.66
2023-02-19T06:11:01.722Z,11.66
2023-02-19T06:13:03.457Z,11.65
2023-02-19T06:15:06.862Z,11.69
2023-02-19T06:17:08.705Z,11.61
2023-02-19T06:19:10.832Z,11.68
2023-02-19T06:21:13.390Z,11.72
2023-02-19T06:23:15.718Z,11.67
2023-02-19T06:25:18.050Z,11.70
2023-02-19T06:27:19.877Z,11.73
2023-02-19T06:29:21.724Z,11.75
2023-02-19T06:31:25.974Z,11.74
2023-02-19T06:33:28.539Z,11.78
2023-02-19T06:35:30.295Z,11.73
2023-02-19T06:37:34.212Z,11.72
2023-02-19T06:39:36.314Z,11.73
2023-02-19T06:41:38.056Z,11.76
2023-02-19T06:43:40.137Z,11.75
2023-02-19T06:45:44.062Z,11.71
2023-02-19T06:47:45.915Z,11.70
2023-02-19T06:49:47.727Z,11.71
2023-02-19T06:51:49.637Z,11.71
2023-02-19T06:53:51.507Z,11.61
2023-02-19T06:55:57.419Z,11.64
2023-02-19T06:57:59.194Z,11.64
2023-02-19T07:00:04.808Z,11.59
2023-02-19T07:02:07.210Z,11.63
2023-02-19T07:04:09.888Z,11.62
2023-02-19T07:06:11.796Z,11.50
2023-02-19T07:08:13.693Z,11.53
2023-02-19T07:10:16.124Z,11.57
2023-02-19T07:12:20.913Z,11.62
2023-02-19T07:14:22.853Z,11.60
2023-02-19T07:16:25.394Z,11.63
2023-02-19T07:18:27.260Z,11.64
2023-02-19T07:20:31.368Z,11.62
2023-02-19T07:22:33.110Z,11.64
2023-02-19T07:24:37.091Z,11.67
2023-02-19T07:26:38.876Z,11.71
2023-02-19T07:28:42.160Z,11.69
2023-02-19T07:30:43.994Z,11.65
2023-02-19T07:32:45.821Z,11.71
2023-02-19T07:34:49.957Z,11.73
2023-02-19T07:36:51.783Z,11.73
2023-02-19T07:38:55.543Z,11.74
2023-02-19T07:40:59.998Z,11.73
2023-02-19T07:43:01.788Z,11.77
2023-02-19T07:45:03.825Z,11.76
2023-02-19T07:47:05.660Z,11.74
2023-02-19T07:49:07.481Z,11.73
2023-02-19T07:51:14.012Z,11.73
2023-02-19T07:53:16.062Z,11.73
2023-02-19T07:55:17.885Z,11.75
2023-02-19T07:57:19.829Z,11.76
2023-02-19T07:59:24.170Z,11.78
2023-02-19T08:01:34.795Z,11.80
2023-02-19T08:03:37.908Z,11.82
2023-02-19T08:05:45.001Z,11.81
2023-02-19T08:07:46.838Z,11.80
2023-02-19T08:10:08.514Z,11.84
2023-02-19T08:12:14.944Z,11.85
2023-02-19T08:14:16.735Z,11.84
2023-02-19T08:16:29.641Z,11.81
2023-02-19T08:18:35.641Z,11.79
2023-02-19T08:20:37.916Z,11.81
2023-02-19T08:22:39.741Z,11.77
2023-02-19T08:24:43.045Z,11.79
2023-02-19T08:26:46.909Z,11.83
2023-02-19T08:28:49.139Z,11.79
2023-02-19T08:30:51.781Z,11.80
2023-02-19T08:32:54.199Z,11.83
2023-02-19T08:34:55.975Z,11.81
2023-02-19T08:36:57.826Z,11.85
2023-02-19T08:38:59.811Z,11.80
2023-02-19T08:41:06.123Z,11.82
2023-02-19T08:43:12.174Z,11.87
2023-02-19T08:45:14.069Z,11.85
2023-02-19T08:47:15.851Z,11.80
2023-02-19T08:49:17.682Z,11.81
2023-02-19T08:51:19.498Z,11.81
2023-02-19T08:53:23.732Z,11.82
2023-02-19T08:55:25.643Z,11.89
2023-02-19T08:57:32.141Z,11.75
2023-02-19T08:59:34.076Z,11.81
2023-02-19T09:01:36.049Z,11.88
2023-02-19T09:03:37.868Z,11.89
2023-02-19T09:05:39.850Z,11.88
2023-02-19T09:07:42.187Z,11.84
2023-02-19T09:09:43.995Z,11.93
2023-02-19T09:11:47.838Z,11.89
2023-02-19T09:13:52.915Z,11.94
2023-02-19T09:15:57.198Z,11.93
2023-02-19T09:17:59.805Z,11.92
2023-02-19T09:20:01.697Z,11.93
2023-02-19T09:22:05.090Z,11.93
2023-02-19T09:24:09.154Z,11.96
2023-02-19T09:26:11.528Z,11.99
2023-02-19T09:28:14.454Z,12.00
2023-02-19T09:30:16.535Z,12.04
2023-02-19T09:32:19.311Z,12.11
2023-02-19T09:34:21.570Z,12.08
2023-02-19T09:36:23.517Z,12.13
2023-02-19T09:38:25.400Z,12.12
2023-02-19T09:40:30.206Z,12.13
2023-02-19T09:42:33.592Z,12.21
2023-02-19T09:44:39.336Z,12.23
2023-02-19T09:46:45.942Z,12.27
2023-02-19T09:48:47.995Z,12.28
2023-02-19T09:50:50.650Z,12.31
2023-02-19T09:52:57.229Z,12.39
2023-02-19T09:55:04.791Z,12.42
2023-02-19T09:57:14.997Z,12.38
2023-02-19T09:59:23.931Z,12.52
2023-02-19T10:01:32.357Z,12.53
2023-02-19T10:03:41.569Z,12.57
2023-02-19T10:05:43.981Z,12.59
2023-02-19T10:07:49.657Z,12.70
2023-02-19T10:09:57.677Z,12.75
2023-02-19T10:12:00.646Z,12.74
2023-02-19T10:14:09.531Z,12.81
2023-02-19T10:16:17.639Z,12.90
2023-02-19T10:18:23.825Z,12.88
2023-02-19T10:20:28.231Z,12.96
2023-02-19T10:22:32.122Z,12.93
2023-02-19T10:24:34.057Z,12.95
2023-02-19T10:26:36.932Z,13.09
2023-02-19T10:28:39.006Z,13.09
2023-02-19T10:30:45.269Z,13.10
2023-02-19T10:33:00.472Z,13.09
2023-02-19T10:35:08.621Z,13.13
2023-02-19T10:37:16.084Z,13.23
2023-02-19T10:39:22.529Z,13.27
2023-02-19T10:41:26.561Z,13.27
2023-02-19T10:43:34.099Z,13.38
2023-02-19T10:45:41.088Z,13.48
2023-02-19T10:47:49.421Z,13.50
2023-02-19T10:49:52.771Z,13.70
2023-02-19T10:51:56.791Z,13.78
2023-02-19T10:54:05.038Z,13.88
2023-02-19T10:56:10.549Z,13.97
2023-02-19T10:58:27.857Z,14.09
2023-02-19T11:00:30.899Z,14.12
2023-02-19T11:02:32.960Z,14.20
2023-02-19T11:04:37.466Z,14.26
2023-02-19T11:06:40.391Z,14.30
2023-02-19T11:08:47.329Z,14.31
2023-02-19T11:10:50.104Z,14.32
2023-02-19T11:12:54.961Z,14.34
2023-02-19T11:14:57.237Z,14.34
2023-02-19T11:17:01.620Z,14.35
2023-02-19T11:19:03.750Z,14.35
2023-02-19T11:21:07.568Z,14.44
2023-02-19T11:23:15.820Z,14.43
2023-02-19T11:25:21.115Z,14.43
2023-02-19T11:27:24.910Z,14.52
2023-02-19T11:29:29.108Z,14.53
2023-02-19T11:31:33.354Z,14.59
2023-02-19T11:33:35.698Z,14.52
2023-02-19T11:35:37.731Z,14.47
2023-02-19T11:37:56.944Z,14.62
2023-02-19T11:39:59.211Z,14.52
2023-02-19T11:42:05.739Z,14.64
2023-02-19T11:44:20.302Z,14.78
2023-02-19T11:46:26.844Z,14.83
2023-02-19T11:48:37.291Z,14.94
2023-02-19T11:50:44.687Z,14.79
2023-02-19T11:52:50.213Z,14.99
2023-02-19T11:54:58.061Z,15.12
2023-02-19T11:57:12.505Z,15.23
2023-02-19T11:59:25.580Z,15.34
2023-02-19T12:01:32.171Z,15.40
2023-02-19T12:03:37.758Z,15.49
2023-02-19T12:05:46.220Z,15.54
2023-02-19T12:07:51.618Z,15.57
2023-02-19T12:09:59.872Z,15.62
2023-02-19T12:12:15.978Z,15.75
2023-02-19T12:14:22.492Z,15.78
2023-02-19T12:16:32.514Z,15.84
2023-02-19T12:18:46.901Z,15.78
2023-02-19T12:20:55.158Z,15.81
2023-02-19T12:23:09.237Z,15.78
2023-02-19T12:25:25.731Z,15.79
2023-02-19T12:27:34.039Z,15.77
2023-02-19T12:29:40.469Z,15.81
2023-02-19T12:31:48.957Z,15.86
2023-02-19T12:33:57.368Z,15.95
2023-02-19T12:36:14.703Z,16.05
2023-02-19T12:38:25.396Z,16.10
2023-02-19T12:40:33.685Z,16.10
2023-02-19T12:42:41.879Z,16.10
2023-02-19T12:44:47.967Z,16.14
2023-02-19T12:46:56.933Z,16.17
2023-02-19T12:49:07.453Z,16.15
2023-02-19T12:51:15.625Z,16.09
2023-02-19T12:53:28.443Z,16.14
2023-02-19T12:55:38.701Z,16.10
2023-02-19T12:57:41.519Z,16.11
2023-02-19T12:59:53.572Z,16.11
2023-02-19T13:02:02.010Z,16.08
2023-02-19T13:04:10.372Z,16.03
2023-02-19T13:06:19.179Z,15.78
2023-02-19T13:08:23.017Z,15.75
2023-02-19T13:10:29.696Z,15.70
2023-02-19T13:12:38.454Z,15.82
2023-02-19T13:14:46.854Z,15.80
2023-02-19T13:16:57.952Z,15.74
2023-02-19T13:19:02.990Z,15.76
2023-02-19T13:21:06.442Z,15.69
2023-02-19T13:23:15.987Z,15.68
2023-02-19T13:25:19.544Z,15.63
2023-02-19T13:27:28.778Z,15.59
2023-02-19T13:29:34.336Z,15.57
2023-02-19T13:31:45.332Z,15.68
2023-02-19T13:33:53.755Z,15.70
2023-02-19T13:36:01.528Z,15.57
2023-02-19T13:40:20.838Z,15.69
2023-02-19T13:42:26.433Z,15.73
2023-02-19T13:44:31.132Z,15.55
2023-02-19T13:46:38.138Z,15.69
2023-02-19T13:48:42.072Z,15.64
2023-02-19T13:50:44.104Z,15.68
2023-02-19T13:52:46.064Z,15.79
2023-02-19T13:54:48.081Z,15.72
2023-02-19T13:56:50.707Z,15.77
2023-02-19T13:58:57.102Z,15.74
2023-02-19T14:01:05.823Z,15.67
2023-02-19T14:03:14.067Z,15.70
2023-02-19T14:05:39.333Z,15.74
2023-02-19T14:07:47.681Z,15.80
2023-02-19T14:09:50.060Z,15.83
2023-02-19T14:11:53.094Z,15.87
2023-02-19T14:13:59.523Z,15.93
2023-02-19T14:16:01.484Z,16.08
2023-02-19T14:18:03.501Z,16.16
2023-02-19T14:20:09.080Z,16.31
2023-02-19T14:22:17.245Z,16.45
2023-02-19T14:24:19.289Z,16.62
2023-02-19T14:26:25.003Z,16.71
2023-02-19T14:28:35.822Z,16.91
2023-02-19T14:30:40.803Z,16.98
2023-02-19T14:32:47.432Z,16.98
2023-02-19T14:34:53.273Z,16.89
2023-02-19T14:37:01.180Z,16.70
2023-02-19T14:39:09.393Z,16.83
2023-02-19T14:41:14.999Z,16.90
2023-02-19T14:43:21.238Z,16.96
2023-02-19T14:45:24.310Z,16.92
2023-02-19T14:47:30.956Z,16.94
2023-02-19T14:49:43.188Z,17.06
2023-02-19T14:51:51.486Z,17.14
2023-02-19T14:53:55.461Z,17.17
2023-02-19T14:55:59.769Z,16.93
2023-02-19T14:58:07.167Z,16.94
2023-02-19T15:00:18.392Z,17.00
2023-02-19T15:02:21.878Z,16.94
2023-02-19T15:04:27.219Z,17.08
2023-02-19T15:06:31.759Z,16.98
2023-02-19T15:08:38.302Z,17.08
2023-02-19T15:10:43.792Z,17.06
2023-02-19T15:12:51.497Z,17.23
2023-02-19T15:14:57.427Z,17.34
2023-02-19T15:17:03.177Z,17.51
2023-02-19T15:19:10.214Z,17.42
2023-02-19T15:21:23.606Z,17.56
2023-02-19T15:23:27.720Z,17.71
2023-02-19T15:25:35.019Z,17.85
2023-02-19T15:27:37.543Z,17.89
2023-02-19T15:29:45.749Z,17.80
2023-02-19T15:31:51.253Z,17.82
2023-02-19T15:33:55.973Z,17.97
2023-02-19T15:36:04.828Z,17.94
2023-02-19T15:38:12.770Z,18.06
2023-02-19T15:40:16.295Z,18.06
2023-02-19T15:42:24.494Z,18.00
2023-02-19T15:44:35.433Z,17.88
2023-02-19T15:46:38.603Z,17.76
2023-02-19T15:48:47.056Z,17.83
2023-02-19T15:50:55.270Z,17.79
2023-02-19T15:53:00.950Z,17.79
2023-02-19T15:55:11.372Z,17.62
2023-02-19T15:57:20.350Z,17.62
2023-02-19T15:59:33.164Z,17.32
2023-02-19T16:01:37.954Z,16.99
2023-02-19T16:03:40.314Z,16.77
2023-02-19T16:05:42.385Z,16.90
2023-02-19T16:07:44.465Z,16.94
2023-02-19T16:09:46.550Z,16.89
2023-02-19T16:11:55.413Z,16.92
2023-02-19T16:14:04.486Z,16.98
2023-02-19T16:16:10.051Z,16.91
2023-02-19T16:18:16.582Z,17.00
2023-02-19T16:20:24.293Z,16.92
2023-02-19T16:22:31.106Z,16.84
2023-02-19T16:24:37.497Z,16.73
2023-02-19T16:26:43.664Z,16.66
2023-02-19T16:28:51.844Z,16.58
2023-02-19T16:30:59.643Z,16.64
2023-02-19T16:33:07.926Z,16.68
2023-02-19T16:35:16.195Z,16.53
2023-02-19T16:37:24.464Z,16.43
2023-02-19T16:39:26.687Z,16.48
2023-02-19T16:41:29.055Z,16.47
2023-02-19T16:43:39.325Z,16.36
2023-02-19T16:45:42.368Z,16.29
2023-02-19T16:47:48.601Z,16.28
2023-02-19T16:49:50.708Z,16.26
2023-02-19T16:51:53.951Z,16.14
2023-02-19T16:53:56.004Z,16.13
2023-02-19T16:55:58.548Z,16.15
2023-02-19T16:58:01.716Z,16.01
2023-02-19T17:00:04.203Z,16.02
2023-02-19T17:02:09.270Z,15.95
2023-02-19T17:04:13.161Z,15.85
2023-02-19T17:06:16.147Z,15.84
2023-02-19T17:08:24.324Z,15.83
2023-02-19T17:10:28.153Z,15.91
2023-02-19T17:12:30.534Z,15.89
2023-02-19T17:14:32.457Z,15.78
2023-02-19T17:16:40.275Z,15.79
2023-02-19T17:18:42.675Z,15.78
2023-02-19T17:20:51.183Z,15.76
2023-02-19T17:22:54.348Z,15.57
2023-02-19T17:24:56.461Z,15.61
2023-02-19T17:26:58.430Z,15.59
2023-02-19T17:29:02.554Z,15.59
2023-02-19T17:31:05.110Z,15.48
2023-02-19T17:33:07.183Z,15.52
2023-02-19T17:35:09.254Z,15.47
2023-02-19T17:37:16.143Z,15.37
2023-02-19T17:39:18.313Z,15.37
2023-02-19T17:41:20.514Z,15.42
2023-02-19T17:43:25.500Z,15.28
2023-02-19T17:45:27.735Z,15.33
2023-02-19T17:47:32.142Z,15.28
2023-02-19T17:49:34.240Z,15.20
2023-02-19T17:51:36.261Z,15.21
2023-02-19T17:53:40.490Z,15.25
2023-02-19T17:55:42.611Z,15.18
2023-02-19T17:57:45.991Z,15.18
2023-02-19T17:59:48.174Z,15.16
2023-02-19T18:01:50.428Z,15.14
2023-02-19T18:03:52.621Z,15.06
2023-02-19T18:05:56.930Z,15.06
2023-02-19T18:07:59.204Z,15.09
2023-02-19T18:10:01.272Z,15.03
2023-02-19T18:12:03.478Z,14.96
2023-02-19T18:14:05.588Z,14.78
2023-02-19T18:16:10.102Z,14.58
2023-02-19T18:18:12.442Z,14.78
2023-02-19T18:20:18.062Z,14.69
2023-02-19T18:22:20.422Z,14.72
2023-02-19T18:24:22.445Z,14.72
2023-02-19T18:26:24.971Z,14.67
2023-02-19T18:28:29.914Z,14.50
2023-02-19T18:30:32.056Z,14.51
2023-02-19T18:32:34.391Z,14.50
2023-02-19T18:34:36.651Z,14.56
2023-02-19T18:36:38.884Z,14.51
2023-02-19T18:38:41.115Z,14.53
2023-02-19T18:40:43.446Z,14.52
2023-02-19T18:42:45.465Z,14.54
2023-02-19T18:44:49.296Z,14.23
2023-02-19T18:46:51.685Z,14.30
2023-02-19T18:48:53.656Z,14.15
2023-02-19T18:50:55.652Z,14.12
2023-02-19T18:52:57.741Z,14.06
2023-02-19T18:54:59.807Z,13.96
2023-02-19T18:57:03.790Z,13.92
2023-02-19T18:59:05.801Z,13.87
2023-02-19T19:01:08.005Z,13.93
2023-02-19T19:03:10.055Z,13.81
2023-02-19T19:05:14.259Z,13.74
2023-02-19T19:07:17.473Z,13.76
2023-02-19T19:09:19.668Z,13.73
2023-02-19T19:11:22.866Z,13.75
2023-02-19T19:13:25.726Z,13.81
2023-02-19T19:15:27.846Z,13.72
2023-02-19T19:17:29.879Z,13.66
2023-02-19T19:19:34.226Z,13.41
2023-02-19T19:21:36.217Z,13.58
2023-02-19T19:23:38.210Z,13.57
2023-02-19T19:25:40.228Z,13.57
2023-02-19T19:27:42.237Z,13.51
2023-02-19T19:29:45.256Z,13.51
2023-02-19T19:31:49.623Z,13.34
2023-02-19T19:33:51.976Z,13.37
2023-02-19T19:35:54.338Z,13.37
2023-02-19T19:37:56.360Z,13.29
2023-02-19T19:39:58.371Z,13.36
2023-02-19T19:42:00.627Z,13.27
2023-02-19T19:44:05.756Z,13.39
2023-02-19T19:46:08.889Z,13.30
2023-02-19T19:48:11.003Z,13.44
2023-02-19T19:50:14.572Z,13.46
2023-02-19T19:52:16.715Z,13.22
2023-02-19T19:54:18.861Z,13.28
2023-02-19T19:56:20.944Z,13.25
2023-02-19T19:58:24.977Z,13.34
2023-02-19T20:00:27.185Z,13.33
2023-02-19T20:02:29.395Z,13.24
2023-02-19T20:04:31.725Z,13.27
2023-02-19T20:06:33.724Z,13.32
2023-02-19T20:08:35.638Z,13.14
2023-02-19T20:10:37.773Z,13.24
2023-02-19T20:12:40.782Z,13.18
2023-02-19T20:14:46.115Z,13.16
2023-02-19T20:16:50.684Z,13.17
2023-02-19T20:18:52.709Z,12.95
2023-02-19T20:20:54.710Z,13.06
2023-02-19T20:22:57.027Z,13.00
2023-02-19T20:24:59.002Z,12.93
2023-02-19T20:27:02.222Z,13.03
2023-02-19T20:29:06.181Z,12.99
2023-02-19T20:31:08.601Z,13.04
2023-02-19T20:33:10.636Z,13.00
2023-02-19T20:35:16.187Z,13.00
2023-02-19T20:37:18.221Z,12.95
2023-02-19T20:39:21.750Z,13.00
2023-02-19T20:41:23.872Z,12.80
2023-02-19T20:43:27.284Z,12.84
2023-02-19T20:45:31.195Z,12.82
2023-02-19T20:47:33.312Z,12.75
2023-02-19T20:49:35.502Z,12.71
2023-02-19T20:51:43.652Z,12.43
2023-02-19T20:53:45.603Z,12.62
2023-02-19T20:55:47.702Z,12.65
2023-02-19T20:57:49.737Z,12.64
2023-02-19T20:59:51.775Z,12.70
2023-02-19T21:01:54.032Z,12.70
2023-02-19T21:03:56.130Z,12.72
2023-02-19T21:05:58.081Z,12.73
2023-02-19T21:08:00.144Z,12.79
2023-02-19T21:10:02.241Z,12.68
2023-02-19T21:12:05.465Z,12.63
2023-02-19T21:14:07.659Z,12.63
2023-02-19T21:16:10.138Z,12.57
2023-02-19T21:18:12.374Z,12.50
2023-02-19T21:20:15.369Z,12.54
2023-02-19T21:22:18.713Z,12.45
2023-02-19T21:24:20.744Z,12.13
2023-02-19T21:26:26.235Z,12.21
2023-02-19T21:28:28.179Z,12.29
2023-02-19T21:30:30.231Z,12.25
2023-02-19T21:32:32.283Z,12.15
2023-02-19T21:34:34.310Z,12.22
2023-02-19T21:36:37.112Z,12.09
2023-02-19T21:38:39.179Z,12.05
2023-02-19T21:40:41.264Z,12.12
2023-02-19T21:42:43.316Z,12.00
2023-02-19T21:44:45.254Z,12.02
2023-02-19T21:46:47.644Z,11.93
2023-02-19T21:48:51.666Z,12.10
2023-02-19T21:50:53.903Z,12.06
2023-02-19T21:52:55.955Z,12.08
2023-02-19T21:54:58.111Z,12.12
2023-02-19T21:57:03.289Z,12.00
2023-02-19T21:59:07.637Z,11.93
2023-02-19T22:01:09.629Z,11.82
2023-02-19T22:03:16.603Z,11.91
2023-02-19T22:05:18.673Z,11.89
2023-02-19T22:07:21.547Z,11.62
2023-02-19T22:09:23.672Z,11.67
2023-02-19T22:11:26.265Z,11.64
2023-02-19T22:13:28.146Z,11.74
2023-02-19T22:15:30.095Z,11.65
2023-02-19T22:17:34.367Z,11.63
2023-02-19T22:19:39.183Z,11.54
2023-02-19T22:21:44.297Z,11.39
2023-02-19T22:23:48.627Z,11.48
2023-02-19T22:25:51.657Z,11.41
2023-02-19T22:27:53.733Z,11.25
2023-02-19T22:29:55.889Z,11.31
2023-02-19T22:31:58.161Z,11.26
2023-02-19T22:34:00.166Z,11.13
2023-02-19T22:36:02.303Z,11.13
2023-02-19T22:38:04.301Z,11.15
2023-02-19T22:40:07.365Z,10.99
2023-02-19T22:42:09.372Z,11.04
2023-02-19T22:44:11.400Z,11.04
2023-02-19T22:46:18.826Z,10.80
2023-02-19T22:48:29.494Z,10.83
2023-02-19T22:50:32.296Z,10.91
2023-02-19T22:52:34.480Z,10.80
2023-02-19T22:54:37.385Z,10.77
2023-02-19T22:56:42.531Z,10.66
2023-02-19T22:58:44.551Z,10.81
2023-02-19T23:00:46.896Z,10.86
2023-02-19T23:02:49.727Z,10.91
2023-02-19T23:04:51.718Z,10.87
2023-02-19T23:06:55.917Z,10.89
2023-02-19T23:09:02.192Z,10.96
2023-02-19T23:11:04.283Z,10.69
2023-02-19T23:13:08.612Z,10.60
2023-02-19T23:15:11.635Z,10.76
2023-02-19T23:17:13.547Z,10.69
2023-02-19T23:19:16.315Z,10.80
2023-02-19T23:21:19.697Z,10.82
2023-02-19T23:23:21.593Z,10.84
2023-02-19T23:25:23.654Z,10.90
2023-02-19T23:27:26.794Z,10.85
2023-02-19T23:29:30.937Z,10.81
2023-02-19T23:31:33.020Z,10.79
2023-02-19T23:33:35.344Z,10.68
2023-02-19T23:35:37.248Z,10.76
2023-02-19T23:37:39.159Z,10.77
2023-02-19T23:39:41.090Z,10.77
2023-02-19T23:41:48.771Z,10.79
2023-02-19T23:43:53.076Z,10.45
2023-02-19T23:45:55.178Z,10.66
2023-02-19T23:47:59.315Z,10.56
2023-02-19T23:50:03.649Z,10.57
2023-02-19T23:52:05.904Z,10.56
2023-02-19T23:54:08.245Z,10.51
2023-02-19T23:56:10.441Z,10.40
2023-02-19T23:58:12.679Z,10.36
